createdAt,value
2022-11-21T00:01:19.393Z,28.00
2022-11-21T00:03:47.326Z,25.05
2022-11-21T00:06:15.100Z,28.05
2022-11-21T00:08:42.652Z,26.35
2022-11-21T00:11:10.231Z,29.13
2022-11-21T00:13:38.643Z,30.33
2022-11-21T00:16:08.283Z,28.00
2022-11-21T00:18:36.361Z,26.92
2022-11-21T00:21:15.351Z,31.33
2022-11-21T00:23:44.313Z,30.48
2022-11-21T00:26:13.353Z,27.95
2022-11-21T00:28:41.255Z,26.65
2022-11-21T00:31:09.237Z,28.02
2022-11-21T00:33:37.076Z,30.40
2022-11-21T00:36:10.847Z,28.90
2022-11-21T00:38:38.578Z,31.48
2022-11-21T00:41:06.953Z,26.75
2022-11-21T00:43:34.667Z,28.58
2022-11-21T00:46:03.212Z,27.92
2022-11-21T00:48:32.537Z,26.35
2022-11-21T00:51:00.985Z,26.27
2022-11-21T00:53:29.463Z,27.30
2022-11-21T00:55:57.776Z,27.48
2022-11-21T00:58:25.864Z,27.63
2022-11-21T01:01:01.577Z,28.75
2022-11-21T01:03:29.184Z,29.50
2022-11-21T01:06:02.330Z,28.42
2022-11-21T01:08:30.087Z,28.10
2022-11-21T01:11:01.110Z,26.88
2022-11-21T01:13:28.680Z,30.35
2022-11-21T01:15:56.242Z,27.60
2022-11-21T01:18:23.806Z,26.92
2022-11-21T01:20:51.358Z,29.00
2022-11-21T01:23:18.898Z,27.30
2022-11-21T01:25:46.434Z,27.90
2022-11-21T01:28:14.235Z,26.42
2022-11-21T01:30:41.783Z,24.27
2022-11-21T01:33:09.317Z,25.02
2022-11-21T01:35:36.878Z,27.05
2022-11-21T01:38:04.450Z,26.38
2022-11-21T01:40:38.846Z,26.63
2022-11-21T01:43:15.635Z,26.23
2022-11-21T01:45:59.450Z,26.55
2022-11-21T01:48:29.593Z,25.88
2022-11-21T01:51:01.191Z,29.10
2022-11-21T01:53:28.854Z,29.60
2022-11-21T01:55:56.468Z,27.38
2022-11-21T01:58:24.347Z,27.00
2022-11-21T02:00:51.970Z,25.15
2022-11-21T02:03:22.739Z,26.85
2022-11-21T02:05:50.400Z,27.67
2022-11-21T02:08:21.200Z,28.00
2022-11-21T02:10:59.730Z,29.27
2022-11-21T02:13:28.008Z,30.83
2022-11-21T02:15:55.998Z,29.00
2022-11-21T02:18:23.564Z,26.63
2022-11-21T02:20:56.798Z,27.33
2022-11-21T02:23:45.272Z,28.58
2022-11-21T02:26:12.896Z,27.77
2022-11-21T02:28:40.528Z,28.50
2022-11-21T02:31:08.082Z,28.58
2022-11-21T02:33:37.719Z,28.77
2022-11-21T02:36:05.603Z,30.20
2022-11-21T02:38:38.501Z,30.17
2022-11-21T02:41:26.571Z,32.85
2022-11-21T02:44:02.652Z,31.40
2022-11-21T02:46:30.342Z,30.30
2022-11-21T02:48:58.200Z,29.92
2022-11-21T02:51:25.744Z,29.23
2022-11-21T02:53:53.266Z,30.35
2022-11-21T02:56:21.054Z,28.85
2022-11-21T02:58:49.058Z,30.30
2022-11-21T03:01:16.642Z,26.77
2022-11-21T03:03:44.280Z,27.15
2022-11-21T03:06:11.820Z,24.92
2022-11-21T03:08:39.419Z,28.92
2022-11-21T03:11:06.965Z,27.10
2022-11-21T03:13:34.533Z,25.90
2022-11-21T03:16:02.052Z,23.73
2022-11-21T03:18:29.622Z,26.77
2022-11-21T03:20:58.434Z,29.13
2022-11-21T03:23:26.016Z,27.17
2022-11-21T03:25:53.584Z,25.48
2022-11-21T03:28:21.182Z,26.40
2022-11-21T03:30:48.747Z,29.38
2022-11-21T03:33:16.706Z,28.00
2022-11-21T03:35:44.270Z,29.65
2022-11-21T03:38:11.829Z,27.17
2022-11-21T03:40:39.362Z,27.95
2022-11-21T03:43:07.920Z,27.30
2022-11-21T03:45:35.595Z,25.67
2022-11-21T03:48:03.202Z,26.67
2022-11-21T03:50:30.748Z,28.95
2022-11-21T03:52:58.299Z,27.08
2022-11-21T03:55:26.145Z,29.10
2022-11-21T03:57:53.724Z,28.00
2022-11-21T04:00:21.340Z,28.48
2022-11-21T04:02:48.892Z,30.73
2022-11-21T04:05:16.495Z,28.88
2022-11-21T04:07:46.011Z,29.55
2022-11-21T04:10:14.050Z,32.05
2022-11-21T04:12:41.678Z,28.75
2022-11-21T04:15:13.474Z,31.67
2022-11-21T04:17:41.482Z,33.28
2022-11-21T04:20:09.786Z,30.75
2022-11-21T04:22:37.353Z,29.15
2022-11-21T04:25:05.183Z,33.17
2022-11-21T04:27:32.743Z,32.17
2022-11-21T04:30:00.311Z,29.98
2022-11-21T04:32:28.169Z,29.00
2022-11-21T04:34:55.719Z,31.23
2022-11-21T04:37:23.365Z,31.02
2022-11-21T04:39:50.957Z,27.38
2022-11-21T04:42:18.500Z,28.55
2022-11-21T04:44:46.086Z,30.95
2022-11-21T04:47:13.765Z,27.90
2022-11-21T04:49:41.310Z,29.65
2022-11-21T04:52:08.946Z,31.20
2022-11-21T04:54:36.615Z,28.35
2022-11-21T04:57:04.217Z,28.13
2022-11-21T04:59:31.778Z,27.05
2022-11-21T05:01:59.349Z,27.33
2022-11-21T05:04:27.148Z,26.48
2022-11-21T05:06:54.896Z,28.40
2022-11-21T05:09:22.472Z,27.48
2022-11-21T05:12:08.457Z,28.25
2022-11-21T05:14:35.973Z,26.58
2022-11-21T05:17:03.763Z,24.70
2022-11-21T05:19:31.343Z,26.02
2022-11-21T05:21:58.866Z,30.17
2022-11-21T05:24:26.732Z,30.63
2022-11-21T05:26:54.959Z,30.23
2022-11-21T05:29:27.776Z,29.75
2022-11-21T05:31:55.820Z,28.20
2022-11-21T05:34:23.359Z,28.90
2022-11-21T05:36:57.169Z,27.45
2022-11-21T05:39:25.375Z,26.75
2022-11-21T05:41:55.265Z,25.95
2022-11-21T05:44:26.046Z,29.40
2022-11-21T05:46:53.904Z,26.73
2022-11-21T05:49:21.673Z,29.92
2022-11-21T05:51:49.269Z,28.02
2022-11-21T05:54:17.036Z,29.23
2022-11-21T05:56:44.665Z,28.35
2022-11-21T05:59:12.654Z,27.65
2022-11-21T06:01:59.135Z,27.10
2022-11-21T06:04:27.038Z,30.42
2022-11-21T06:06:54.815Z,26.52
2022-11-21T06:09:22.394Z,26.02
2022-11-21T06:11:49.977Z,27.75
2022-11-21T06:14:17.700Z,27.42
2022-11-21T06:16:45.338Z,28.30
2022-11-21T06:19:12.857Z,30.38
2022-11-21T06:21:40.941Z,30.55
2022-11-21T06:24:08.869Z,30.58
2022-11-21T06:26:36.639Z,29.67
2022-11-21T06:29:04.542Z,31.15
2022-11-21T06:31:32.183Z,36.30
2022-11-21T06:34:00.291Z,27.02
2022-11-21T06:36:27.910Z,28.02
2022-11-21T06:38:56.455Z,28.70
2022-11-21T06:41:26.050Z,27.85
2022-11-21T06:43:53.680Z,27.98
2022-11-21T06:46:21.293Z,27.95
2022-11-21T06:48:48.854Z,26.58
2022-11-21T06:51:20.287Z,28.02
2022-11-21T06:53:48.945Z,30.45
2022-11-21T06:56:16.584Z,30.45
2022-11-21T06:58:44.215Z,28.23
2022-11-21T07:01:12.148Z,29.55
2022-11-21T07:03:40.183Z,30.60
2022-11-21T07:06:08.076Z,29.50
2022-11-21T07:08:36.807Z,31.88
2022-11-21T07:13:54.197Z,31.30
2022-11-21T07:16:21.847Z,31.63
2022-11-21T07:18:49.428Z,28.85
2022-11-21T07:21:18.150Z,31.05
2022-11-21T07:23:45.812Z,27.35
2022-11-21T07:26:13.356Z,30.90
2022-11-21T07:28:40.994Z,29.45
2022-11-21T07:31:13.479Z,28.75
2022-11-21T07:33:43.405Z,29.65
2022-11-21T07:36:12.157Z,30.80
2022-11-21T07:38:41.601Z,30.35
2022-11-21T07:41:09.985Z,29.85
2022-11-21T07:43:37.550Z,31.50
2022-11-21T07:46:05.150Z,32.13
2022-11-21T07:48:32.832Z,31.73
2022-11-21T07:51:02.935Z,30.50
2022-11-21T07:53:30.602Z,27.52
2022-11-21T07:55:59.826Z,25.60
2022-11-21T07:58:27.380Z,33.63
2022-11-21T08:00:55.192Z,31.08
2022-11-21T08:03:25.228Z,27.42
2022-11-21T08:05:52.825Z,33.28
2022-11-21T08:08:20.401Z,30.77
2022-11-21T08:10:48.060Z,29.35
2022-11-21T08:13:15.691Z,27.35
2022-11-21T08:15:43.246Z,24.30
2022-11-21T08:18:16.146Z,22.85
2022-11-21T08:20:43.883Z,21.88
2022-11-21T08:23:11.501Z,19.65
2022-11-21T08:25:40.062Z,17.73
2022-11-21T08:28:09.879Z,18.98
2022-11-21T08:30:38.093Z,17.45
2022-11-21T08:33:06.377Z,24.77
2022-11-21T08:35:36.893Z,23.50
2022-11-21T08:38:04.819Z,15.85
2022-11-21T08:40:32.994Z,17.08
2022-11-21T08:43:01.225Z,16.48
2022-11-21T08:45:29.090Z,15.63
2022-11-21T08:47:56.687Z,15.15
2022-11-21T08:50:24.885Z,16.52
2022-11-21T08:52:52.836Z,20.88
2022-11-21T08:55:20.530Z,15.27
2022-11-21T08:57:48.096Z,14.55
2022-11-21T09:00:16.171Z,14.23
2022-11-21T09:02:44.792Z,14.52
2022-11-21T09:05:12.393Z,18.77
2022-11-21T09:07:41.250Z,15.45
2022-11-21T09:10:09.504Z,13.70
2022-11-21T09:12:37.418Z,15.15
2022-11-21T09:15:23.966Z,14.18
2022-11-21T09:18:03.411Z,13.50
2022-11-21T09:20:38.387Z,13.35
2022-11-21T09:23:16.038Z,10.93
2022-11-21T09:25:44.084Z,16.58
2022-11-21T09:28:13.049Z,14.63
2022-11-21T09:30:41.611Z,15.68
2022-11-21T09:33:14.868Z,13.90
2022-11-21T09:35:42.512Z,11.70
2022-11-21T09:38:10.281Z,12.38
2022-11-21T09:40:41.395Z,12.65
2022-11-21T09:43:19.107Z,13.18
2022-11-21T09:45:48.029Z,14.35
2022-11-21T09:48:32.002Z,9.65
2022-11-21T09:51:05.290Z,15.00
2022-11-21T09:53:38.647Z,12.43
2022-11-21T09:56:16.029Z,13.77
2022-11-21T09:58:51.803Z,17.67
2022-11-21T10:01:19.511Z,12.82
2022-11-21T10:03:49.041Z,13.20
2022-11-21T10:06:36.762Z,11.55
2022-11-21T10:09:19.255Z,12.77
2022-11-21T10:12:21.466Z,12.75
2022-11-21T10:14:56.841Z,12.93
2022-11-21T10:17:50.900Z,17.00
2022-11-21T10:20:30.263Z,15.63
2022-11-21T10:23:21.191Z,12.50
2022-11-21T10:26:19.950Z,13.98
2022-11-21T10:28:50.163Z,15.85
2022-11-21T10:31:18.526Z,15.00
2022-11-21T10:33:46.455Z,12.88
2022-11-21T10:36:31.043Z,8.10
2022-11-21T10:39:11.860Z,11.57
2022-11-21T10:41:49.585Z,13.88
2022-11-21T10:44:42.690Z,9.85
2022-11-21T10:47:27.688Z,8.63
2022-11-21T10:50:09.082Z,12.75
2022-11-21T10:52:40.557Z,9.82
2022-11-21T10:55:11.367Z,14.10
2022-11-21T10:57:41.437Z,9.73
2022-11-21T11:00:18.048Z,12.95
2022-11-21T11:03:05.049Z,12.30
2022-11-21T11:05:37.395Z,10.73
2022-11-21T11:08:08.655Z,14.63
2022-11-21T11:11:01.862Z,9.35
2022-11-21T11:13:46.375Z,13.70
2022-11-21T11:16:21.177Z,10.88
2022-11-21T11:18:55.836Z,12.35
2022-11-21T11:21:31.854Z,10.32
2022-11-21T11:24:11.637Z,11.55
2022-11-21T11:26:48.948Z,9.63
2022-11-21T11:29:20.112Z,13.50
2022-11-21T11:32:00.975Z,14.18
2022-11-21T11:34:41.794Z,9.50
2022-11-21T11:37:43.205Z,10.65
2022-11-21T11:40:40.105Z,10.18
2022-11-21T11:43:35.817Z,9.95
2022-11-21T11:46:21.704Z,7.10
2022-11-21T11:49:17.524Z,9.30
2022-11-21T11:51:48.088Z,9.07
2022-11-21T11:54:29.743Z,12.90
2022-11-21T11:56:58.554Z,8.80
2022-11-21T11:59:37.048Z,10.02
2022-11-21T12:02:18.185Z,9.45
2022-11-21T12:05:12.477Z,10.60
2022-11-21T12:08:39.352Z,12.20
2022-11-21T12:11:02.848Z,10.38
2022-11-21T12:13:32.188Z,13.57
2022-11-21T12:16:11.834Z,9.75
2022-11-21T12:19:10.652Z,10.63
2022-11-21T12:21:38.265Z,11.77
2022-11-21T12:24:08.347Z,10.02
2022-11-21T12:26:44.865Z,10.05
2022-11-21T12:29:47.123Z,12.07
2022-11-21T12:33:08.916Z,9.13
2022-11-21T12:36:16.673Z,9.00
2022-11-21T12:38:54.444Z,12.50
2022-11-21T12:41:55.607Z,10.38
2022-11-21T12:44:23.112Z,10.38
2022-11-21T12:47:01.760Z,8.48
2022-11-21T12:50:04.091Z,8.30
2022-11-21T12:53:00.962Z,11.07
2022-11-21T12:55:39.931Z,10.10
2022-11-21T12:58:32.697Z,17.33
2022-11-21T13:01:06.940Z,9.30
2022-11-21T13:03:50.921Z,11.18
2022-11-21T13:06:27.546Z,10.18
2022-11-21T13:08:56.213Z,11.80
2022-11-21T13:11:55.144Z,15.35
2022-11-21T13:14:27.874Z,8.38
2022-11-21T13:17:28.143Z,11.48
2022-11-21T13:20:20.337Z,19.60
2022-11-21T13:22:48.180Z,9.05
2022-11-21T13:25:40.472Z,12.80
2022-11-21T13:28:20.010Z,10.10
2022-11-21T13:30:54.530Z,11.57
2022-11-21T13:33:46.022Z,11.27
2022-11-21T13:36:35.037Z,13.20
2022-11-21T13:39:03.545Z,12.82
2022-11-21T13:41:56.013Z,11.35
2022-11-21T13:44:32.944Z,8.85
2022-11-21T13:47:05.242Z,10.65
2022-11-21T13:50:00.194Z,11.65
2022-11-21T13:52:36.698Z,15.00
2022-11-21T13:55:35.809Z,12.27
2022-11-21T13:58:15.609Z,16.13
2022-11-21T14:01:21.485Z,10.50
2022-11-21T14:04:11.023Z,12.52
2022-11-21T14:06:43.606Z,7.63
2022-11-21T14:09:24.034Z,14.23
2022-11-21T14:11:58.667Z,10.13
2022-11-21T14:14:30.470Z,10.85
2022-11-21T14:17:06.745Z,16.35
2022-11-21T14:19:34.796Z,10.95
2022-11-21T14:22:02.361Z,12.02
2022-11-21T14:24:30.768Z,9.52
2022-11-21T14:26:59.008Z,11.20
2022-11-21T14:29:39.427Z,12.55
2022-11-21T14:32:14.982Z,11.82
2022-11-21T14:34:42.776Z,7.85
2022-11-21T14:37:13.870Z,10.15
2022-11-21T14:39:44.755Z,12.38
2022-11-21T14:42:16.837Z,9.18
2022-11-21T14:44:44.936Z,10.15
2022-11-21T14:47:25.890Z,11.20
2022-11-21T14:49:57.010Z,12.30
2022-11-21T14:52:29.386Z,9.93
2022-11-21T14:55:28.599Z,10.13
2022-11-21T14:57:47.019Z,13.75
2022-11-21T15:03:04.867Z,7.78
2022-11-21T15:06:00.731Z,9.57
2022-11-21T15:09:14.868Z,11.75
2022-11-21T15:11:13.689Z,10.75
2022-11-21T15:14:06.727Z,8.57
2022-11-21T15:16:29.623Z,6.90
2022-11-21T15:18:57.501Z,9.55
2022-11-21T15:21:25.113Z,9.15
2022-11-21T15:23:56.271Z,7.68
2022-11-21T15:26:31.946Z,8.63
2022-11-21T15:29:00.812Z,9.90
2022-11-21T15:31:29.320Z,9.77
2022-11-21T15:34:33.655Z,8.52
2022-11-21T15:37:05.332Z,9.48
2022-11-21T15:39:33.871Z,8.32
2022-11-21T15:42:29.685Z,8.13
2022-11-21T15:45:01.963Z,9.85
2022-11-21T15:47:29.654Z,12.80
2022-11-21T15:49:57.233Z,9.70
2022-11-21T15:52:24.903Z,14.90
2022-11-21T15:54:52.494Z,8.05
2022-11-21T15:57:21.939Z,8.15
2022-11-21T15:59:50.062Z,10.18
2022-11-21T16:02:17.607Z,10.13
2022-11-21T16:04:45.576Z,7.88
2022-11-21T16:07:13.168Z,10.27
2022-11-21T16:09:42.089Z,11.50
2022-11-21T16:12:10.008Z,7.97
2022-11-21T16:14:37.599Z,8.73
2022-11-21T16:17:05.211Z,8.90
2022-11-21T16:19:32.972Z,8.35
2022-11-21T16:22:00.513Z,11.20
2022-11-21T16:24:28.076Z,6.75
2022-11-21T16:26:57.134Z,7.72
2022-11-21T16:29:24.864Z,7.97
2022-11-21T16:31:53.304Z,10.27
2022-11-21T16:34:21.411Z,7.53
2022-11-21T16:36:50.557Z,10.75
2022-11-21T16:39:18.776Z,10.07
2022-11-21T16:41:47.872Z,9.00
2022-11-21T16:44:16.469Z,12.65
2022-11-21T16:46:47.349Z,11.55
2022-11-21T16:49:14.994Z,10.07
2022-11-21T16:51:42.563Z,10.35
2022-11-21T16:54:10.148Z,9.43
2022-11-21T16:56:38.180Z,9.52
2022-11-21T16:59:05.976Z,8.75
2022-11-21T17:01:33.731Z,9.63
2022-11-21T17:04:01.346Z,10.82
2022-11-21T17:06:30.675Z,9.05
2022-11-21T17:09:00.980Z,13.20
2022-11-21T17:11:31.156Z,9.20
2022-11-21T17:14:04.607Z,10.07
2022-11-21T17:16:32.632Z,9.23
2022-11-21T17:19:01.612Z,11.80
2022-11-21T17:21:30.266Z,10.05
2022-11-21T17:23:58.094Z,9.65
2022-11-21T17:26:27.735Z,9.13
2022-11-21T17:28:57.243Z,10.57
2022-11-21T17:31:25.436Z,11.10
2022-11-21T17:33:54.587Z,10.93
2022-11-21T17:36:24.305Z,15.60
2022-11-21T17:38:52.952Z,12.38
2022-11-21T17:41:21.792Z,10.07
2022-11-21T17:43:49.747Z,8.65
2022-11-21T17:46:18.791Z,8.20
2022-11-21T17:48:54.304Z,10.77
2022-11-21T17:51:25.873Z,9.30
2022-11-21T17:53:54.025Z,11.90
2022-11-21T17:56:23.746Z,10.23
2022-11-21T17:58:52.177Z,8.90
2022-11-21T18:01:20.455Z,8.88
2022-11-21T18:03:53.884Z,10.93
2022-11-21T18:06:21.427Z,12.15
2022-11-21T18:08:50.163Z,11.45
2022-11-21T18:11:23.763Z,11.07
2022-11-21T18:13:51.568Z,9.73
2022-11-21T18:16:22.029Z,11.90
2022-11-21T18:18:50.237Z,11.85
2022-11-21T18:21:20.099Z,9.40
2022-11-21T18:23:47.774Z,10.25
2022-11-21T18:26:26.802Z,9.85
2022-11-21T18:29:20.516Z,10.90
2022-11-21T18:31:46.977Z,9.63
2022-11-21T18:34:14.684Z,21.30
2022-11-21T18:36:42.454Z,19.83
2022-11-21T18:39:14.747Z,22.80
2022-11-21T18:41:43.670Z,18.20
2022-11-21T18:44:14.651Z,19.23
2022-11-21T18:46:44.866Z,11.25
2022-11-21T18:49:12.453Z,14.90
2022-11-21T18:51:40.041Z,12.43
2022-11-21T18:54:10.250Z,10.70
2022-11-21T18:56:38.821Z,12.68
2022-11-21T18:59:06.820Z,12.13
2022-11-21T19:01:36.241Z,12.32
2022-11-21T19:04:04.334Z,10.35
2022-11-21T19:06:32.137Z,11.68
2022-11-21T19:08:59.840Z,12.30
2022-11-21T19:11:29.446Z,14.13
2022-11-21T19:13:57.663Z,11.50
2022-11-21T19:16:27.460Z,9.73
2022-11-21T19:19:26.423Z,11.38
2022-11-21T19:21:43.795Z,12.85
2022-11-21T19:24:15.426Z,14.32
2022-11-21T19:26:43.243Z,10.90
2022-11-21T19:29:11.233Z,13.02
2022-11-21T19:31:44.805Z,11.35
2022-11-21T19:34:14.720Z,12.07
2022-11-21T19:36:43.113Z,10.05
2022-11-21T19:39:10.884Z,11.05
2022-11-21T19:41:38.606Z,10.50
2022-11-21T19:44:06.330Z,12.80
2022-11-21T19:46:35.775Z,10.77
2022-11-21T19:49:03.748Z,11.43
2022-11-21T19:51:36.356Z,11.88
2022-11-21T19:54:05.404Z,11.30
2022-11-21T19:56:33.206Z,9.07
2022-11-21T19:59:00.805Z,11.77
2022-11-21T20:01:30.615Z,12.35
2022-11-21T20:04:03.382Z,10.50
2022-11-21T20:06:33.651Z,12.38
2022-11-21T20:09:07.443Z,11.55
2022-11-21T20:11:35.523Z,11.35
2022-11-21T20:14:03.305Z,10.50
2022-11-21T20:16:39.233Z,11.60
2022-11-21T20:19:12.123Z,10.88
2022-11-21T20:21:39.841Z,14.02
2022-11-21T20:24:07.936Z,14.02
2022-11-21T20:26:36.620Z,13.15
2022-11-21T20:29:05.010Z,10.50
2022-11-21T20:31:34.541Z,12.57
2022-11-21T20:34:05.428Z,11.23
2022-11-21T20:36:34.398Z,14.52
2022-11-21T20:39:21.630Z,13.13
2022-11-21T20:41:49.352Z,12.68
2022-11-21T20:47:07.847Z,12.40
2022-11-21T20:49:35.701Z,13.82
2022-11-21T20:54:50.864Z,13.23
2022-11-21T20:57:18.541Z,14.43
2022-11-21T20:59:46.113Z,13.25
2022-11-21T21:02:14.323Z,11.32
2022-11-21T21:04:42.542Z,11.02
2022-11-21T21:07:10.381Z,12.25
2022-11-21T21:09:38.203Z,13.45
2022-11-21T21:12:06.035Z,14.52
2022-11-21T21:14:33.656Z,14.35
2022-11-21T21:17:01.472Z,12.82
2022-11-21T21:19:29.377Z,10.77
2022-11-21T21:21:57.215Z,10.88
2022-11-21T21:24:24.891Z,12.20
2022-11-21T21:26:52.474Z,13.73
2022-11-21T21:29:21.479Z,10.55
2022-11-21T21:31:51.885Z,12.13
2022-11-21T21:34:21.535Z,10.40
2022-11-21T21:36:49.757Z,9.60
2022-11-21T21:39:17.382Z,12.55
2022-11-21T21:41:46.667Z,15.80
2022-11-21T21:44:15.188Z,12.07
2022-11-21T21:46:42.830Z,14.77
2022-11-21T21:49:10.481Z,14.98
2022-11-21T21:51:38.580Z,12.98
2022-11-21T21:54:09.163Z,13.77
2022-11-21T21:56:36.738Z,14.38
2022-11-21T21:59:04.392Z,10.73
2022-11-21T22:01:32.999Z,12.00
2022-11-21T22:04:05.089Z,12.23
2022-11-21T22:06:36.254Z,14.63
2022-11-21T22:09:04.377Z,13.45
2022-11-21T22:11:35.837Z,12.35
2022-11-21T22:14:06.111Z,10.45
2022-11-21T22:16:34.008Z,14.75
2022-11-21T22:19:01.724Z,9.98
2022-11-21T22:21:34.626Z,10.93
2022-11-21T22:26:52.295Z,11.25
2022-11-21T22:29:19.922Z,9.07
2022-11-21T22:31:47.547Z,11.65
2022-11-21T22:34:15.162Z,11.98
2022-11-21T22:36:43.352Z,10.07
2022-11-21T22:39:10.946Z,12.70
2022-11-21T22:41:38.517Z,11.20
2022-11-21T22:44:06.595Z,10.00
2022-11-21T22:46:34.230Z,13.18
2022-11-21T22:49:01.799Z,9.27
2022-11-21T22:51:30.171Z,15.00
2022-11-21T22:53:58.225Z,10.98
2022-11-21T22:56:26.540Z,9.70
2022-11-21T22:58:54.401Z,12.60
2022-11-21T23:01:24.634Z,12.45
2022-11-21T23:03:52.857Z,9.23
2022-11-21T23:06:26.055Z,10.93
2022-11-21T23:08:55.875Z,10.32
2022-11-21T23:11:28.717Z,9.23
2022-11-21T23:13:56.972Z,10.82
2022-11-21T23:16:25.148Z,11.25
2022-11-21T23:18:53.989Z,11.05
2022-11-21T23:21:23.021Z,13.30
2022-11-21T23:23:50.699Z,13.43
2022-11-21T23:26:18.361Z,15.73
2022-11-21T23:28:45.931Z,11.25
2022-11-21T23:31:13.575Z,10.80
2022-11-21T23:33:41.113Z,12.00
2022-11-21T23:36:08.737Z,10.38
2022-11-21T23:38:36.298Z,11.38
2022-11-21T23:41:04.022Z,11.15
2022-11-21T23:43:31.547Z,13.75
2022-11-21T23:45:59.116Z,8.85
2022-11-21T23:48:27.342Z,10.13
2022-11-21T23:50:54.908Z,9.60
2022-11-21T23:53:22.902Z,12.13
2022-11-21T23:55:50.713Z,7.72
2022-11-21T23:58:18.335Z,10.50
